createdAt,value
2022-08-07T00:00:50.902Z,96.42
2022-08-07T00:02:39.803Z,96.94
2022-08-07T00:02:50.750Z,96.56
2022-08-07T00:03:50.674Z,96.85
2022-08-07T00:04:50.652Z,97.19
2022-08-07T00:05:50.531Z,97.42
2022-08-07T00:06:52.117Z,97.52
2022-08-07T00:07:58.245Z,96.70
2022-08-07T00:08:50.299Z,97.38
2022-08-07T00:10:17.797Z,97.19
2022-08-07T00:10:57.488Z,96.70
2022-08-07T00:11:55.729Z,97.09
2022-08-07T00:12:59.789Z,96.99
2022-08-07T00:13:49.924Z,97.47
2022-08-07T00:14:49.846Z,97.19
2022-08-07T00:15:50.951Z,97.38
2022-08-07T00:16:49.702Z,96.99
2022-08-07T00:17:49.623Z,97.19
2022-08-07T00:18:49.546Z,97.19
2022-08-07T00:20:01.088Z,96.99
2022-08-07T00:20:49.609Z,96.51
2022-08-07T00:21:56.269Z,97.28
2022-08-07T00:22:51.438Z,97.19
2022-08-07T00:23:49.173Z,95.84
2022-08-07T00:24:49.102Z,96.99
2022-08-07T00:26:00.425Z,96.51
2022-08-07T00:27:06.277Z,97.47
2022-08-07T00:27:53.774Z,97.28
2022-08-07T00:28:55.617Z,97.28
2022-08-07T00:29:48.714Z,97.57
2022-08-07T00:30:48.644Z,97.38
2022-08-07T00:31:49.227Z,96.70
2022-08-07T00:32:48.507Z,96.80
2022-08-07T00:33:48.417Z,97.28
2022-08-07T00:34:48.340Z,96.22
2022-08-07T00:35:49.602Z,96.18
2022-08-07T00:36:48.189Z,95.41
2022-08-07T00:37:48.592Z,96.47
2022-08-07T00:38:48.044Z,95.79
2022-08-07T00:39:54.523Z,96.85
2022-08-07T00:40:47.887Z,96.56
2022-08-07T00:41:53.685Z,95.89
2022-08-07T00:42:47.738Z,95.70
2022-08-07T00:44:00.280Z,95.70
2022-08-07T00:44:47.598Z,95.41
2022-08-07T00:45:47.507Z,95.70
2022-08-07T00:46:47.432Z,95.70
2022-08-07T00:48:09.291Z,95.60
2022-08-07T00:48:49.886Z,95.03
2022-08-07T00:50:19.613Z,95.41
2022-08-07T00:50:51.279Z,95.21
2022-08-07T00:51:56.680Z,95.12
2022-08-07T00:52:47.518Z,96.08
2022-08-07T00:53:50.780Z,95.41
2022-08-07T00:54:46.828Z,95.89
2022-08-07T00:56:00.330Z,95.03
2022-08-07T00:56:46.676Z,95.50
2022-08-07T00:57:55.957Z,95.31
2022-08-07T00:58:46.818Z,95.41
2022-08-07T00:59:46.455Z,94.64
2022-08-07T01:00:54.039Z,94.74
2022-08-07T01:01:46.315Z,94.74
2022-08-07T01:02:46.228Z,94.83
2022-08-07T01:03:55.333Z,95.03
2022-08-07T01:04:46.073Z,94.07
2022-08-07T01:05:51.596Z,94.35
2022-08-07T01:06:45.919Z,94.54
2022-08-07T01:07:45.846Z,94.07
2022-08-07T01:08:53.193Z,94.35
2022-08-07T01:10:04.232Z,94.07
2022-08-07T01:10:47.690Z,94.54
2022-08-07T01:12:10.005Z,94.16
2022-08-07T01:12:53.409Z,94.16
2022-08-07T01:13:55.708Z,94.26
2022-08-07T01:14:45.311Z,95.03
2022-08-07T01:16:05.001Z,95.03
2022-08-07T01:16:46.838Z,93.97
2022-08-07T01:17:45.082Z,94.64
2022-08-07T01:18:45.007Z,95.12
2022-08-07T01:19:44.995Z,94.45
2022-08-07T01:20:44.856Z,94.26
2022-08-07T01:21:44.778Z,94.74
2022-08-07T01:23:00.858Z,95.03
2022-08-07T01:23:46.621Z,95.60
2022-08-07T01:24:44.555Z,94.21
2022-08-07T01:25:56.201Z,94.40
2022-08-07T01:26:44.403Z,93.44
2022-08-07T01:27:51.138Z,93.35
2022-08-07T01:28:45.823Z,94.31
2022-08-07T01:29:44.182Z,94.98
2022-08-07T01:30:44.101Z,94.21
2022-08-07T01:31:48.612Z,94.40
2022-08-07T01:32:43.944Z,94.02
2022-08-07T01:33:55.077Z,93.92
2022-08-07T01:34:43.793Z,94.02
2022-08-07T01:35:53.281Z,94.02
2022-08-07T01:36:44.059Z,94.02
2022-08-07T01:37:43.565Z,94.12
2022-08-07T01:38:43.492Z,92.96
2022-08-07T01:39:46.580Z,93.15
2022-08-07T01:40:43.342Z,93.25
2022-08-07T01:42:07.736Z,93.44
2022-08-07T01:42:57.445Z,93.25
2022-08-07T01:43:43.115Z,92.77
2022-08-07T01:44:43.038Z,93.63
2022-08-07T01:45:42.961Z,93.63
2022-08-07T01:46:42.884Z,93.25
2022-08-07T01:48:29.247Z,93.06
2022-08-07T01:48:46.700Z,93.44
2022-08-07T01:49:42.654Z,93.54
2022-08-07T01:50:43.150Z,93.25
2022-08-07T01:52:01.830Z,93.92
2022-08-07T01:52:49.647Z,94.02
2022-08-07T01:54:06.248Z,93.92
2022-08-07T01:54:42.276Z,93.15
2022-08-07T01:55:42.204Z,93.73
2022-08-07T01:56:42.123Z,94.69
2022-08-07T01:58:06.204Z,94.31
2022-08-07T01:58:41.969Z,94.79
2022-08-07T01:59:43.673Z,95.36
2022-08-07T02:00:49.123Z,94.31
2022-08-07T02:01:59.897Z,94.88
2022-08-07T02:03:11.732Z,95.12
2022-08-07T02:03:48.609Z,94.17
2022-08-07T02:04:55.856Z,93.97
2022-08-07T02:05:42.988Z,94.26
2022-08-07T02:06:41.361Z,93.40
2022-08-07T02:07:50.097Z,95.12
2022-08-07T02:08:41.679Z,94.26
2022-08-07T02:09:53.258Z,94.02
2022-08-07T02:10:42.216Z,93.88
2022-08-07T02:12:02.862Z,94.84
2022-08-07T02:12:40.904Z,95.51
2022-08-07T02:13:58.140Z,95.41
2022-08-07T02:14:41.307Z,95.31
2022-08-07T02:15:40.673Z,95.51
2022-08-07T02:16:40.606Z,95.89
2022-08-07T02:17:40.525Z,94.84
2022-08-07T02:18:46.984Z,95.12
2022-08-07T02:20:05.478Z,95.03
2022-08-07T02:20:40.291Z,96.08
2022-08-07T02:21:55.468Z,96.08
2022-08-07T02:22:41.155Z,95.41
2022-08-07T02:23:40.067Z,95.79
2022-08-07T02:24:39.993Z,94.45
2022-08-07T02:26:30.537Z,95.70
2022-08-07T02:26:39.835Z,94.84
2022-08-07T02:27:41.136Z,95.41
2022-08-07T02:28:39.690Z,94.54
2022-08-07T02:29:48.660Z,95.21
2022-08-07T02:30:39.532Z,95.41
2022-08-07T02:31:39.453Z,95.31
2022-08-07T02:32:59.977Z,95.60
2022-08-07T02:34:01.888Z,95.12
2022-08-07T02:34:39.236Z,95.41
2022-08-07T02:36:30.619Z,95.60
2022-08-07T02:36:39.075Z,94.54
2022-08-07T02:37:44.240Z,94.07
2022-08-07T02:38:38.918Z,95.70
2022-08-07T02:39:43.016Z,95.51
2022-08-07T02:40:38.818Z,94.07
2022-08-07T02:41:38.716Z,94.12
2022-08-07T02:42:38.617Z,94.69
2022-08-07T02:43:39.415Z,93.44
2022-08-07T02:44:38.465Z,93.54
2022-08-07T02:45:58.028Z,94.02
2022-08-07T02:46:38.310Z,94.02
2022-08-07T02:47:45.272Z,95.07
2022-08-07T02:48:38.437Z,95.36
2022-08-07T02:49:57.497Z,94.50
2022-08-07T02:50:37.998Z,94.89
2022-08-07T02:51:42.548Z,94.89
2022-08-07T02:52:38.305Z,95.46
2022-08-07T02:53:38.529Z,94.98
2022-08-07T02:54:37.697Z,95.94
2022-08-07T02:56:03.178Z,94.89
2022-08-07T02:56:37.546Z,95.75
2022-08-07T02:57:37.468Z,94.98
2022-08-07T02:58:39.806Z,95.26
2022-08-07T02:59:37.560Z,94.12
2022-08-07T03:00:39.251Z,94.98
2022-08-07T03:01:40.210Z,95.17
2022-08-07T03:02:37.086Z,96.13
2022-08-07T03:03:49.072Z,95.36
2022-08-07T03:04:36.930Z,95.46
2022-08-07T03:05:37.128Z,95.75
2022-08-07T03:06:36.786Z,96.03
2022-08-07T03:07:58.951Z,96.42
2022-08-07T03:08:36.628Z,96.22
2022-08-07T03:09:43.455Z,96.61
2022-08-07T03:10:36.474Z,95.46
2022-08-07T03:11:38.589Z,95.07
2022-08-07T03:12:36.327Z,95.46
2022-08-07T03:13:39.195Z,94.98
2022-08-07T03:14:36.165Z,94.84
2022-08-07T03:15:47.663Z,94.69
2022-08-07T03:16:36.015Z,95.31
2022-08-07T03:17:36.296Z,97.18
2022-08-07T03:18:36.298Z,95.41
2022-08-07T03:19:36.950Z,94.26
2022-08-07T03:20:35.707Z,94.84
2022-08-07T03:21:35.631Z,94.45
2022-08-07T03:22:35.550Z,95.41
2022-08-07T03:24:19.991Z,95.60
2022-08-07T03:24:36.768Z,95.79
2022-08-07T03:25:40.155Z,94.93
2022-08-07T03:26:35.242Z,96.08
2022-08-07T03:28:08.855Z,95.60
2022-08-07T03:28:38.510Z,95.31
2022-08-07T03:29:36.810Z,95.41
2022-08-07T03:30:34.935Z,95.89
2022-08-07T03:31:42.332Z,95.31
2022-08-07T03:32:34.789Z,95.41
2022-08-07T03:33:40.053Z,95.51
2022-08-07T03:34:39.059Z,95.70
2022-08-07T03:35:38.045Z,96.27
2022-08-07T03:36:34.477Z,94.93
2022-08-07T03:37:45.881Z,95.70
2022-08-07T03:38:34.327Z,95.60
2022-08-07T03:39:59.281Z,95.98
2022-08-07T03:40:36.632Z,96.37
2022-08-07T03:41:42.152Z,95.31
2022-08-07T03:42:34.016Z,95.89
2022-08-07T03:43:33.941Z,95.79
2022-08-07T03:44:34.696Z,95.60
2022-08-07T03:45:33.788Z,95.60
2022-08-07T03:46:33.713Z,96.08
2022-08-07T03:47:45.312Z,96.75
2022-08-07T03:48:33.557Z,95.41
2022-08-07T03:49:33.482Z,96.27
2022-08-07T03:50:33.405Z,95.51
2022-08-07T03:51:47.398Z,95.51
2022-08-07T03:52:33.247Z,95.51
2022-08-07T03:54:32.798Z,96.66
2022-08-07T03:54:53.861Z,95.79
2022-08-07T03:55:53.002Z,95.70
2022-08-07T03:56:34.271Z,96.66
2022-08-07T03:58:33.768Z,96.56
2022-08-07T03:59:09.019Z,95.79
2022-08-07T03:59:32.712Z,95.51
2022-08-07T04:00:35.360Z,95.31
2022-08-07T04:01:32.580Z,95.41
2022-08-07T04:02:32.482Z,96.37
2022-08-07T04:03:49.985Z,96.75
2022-08-07T04:04:32.734Z,96.56
2022-08-07T04:05:40.983Z,95.79
2022-08-07T04:06:37.787Z,96.75
2022-08-07T04:07:36.273Z,96.84
2022-08-07T04:08:32.025Z,96.94
2022-08-07T04:09:44.602Z,96.47
2022-08-07T04:10:31.867Z,96.37
2022-08-07T04:12:26.250Z,96.75
2022-08-07T04:12:31.708Z,96.94
2022-08-07T04:14:09.267Z,96.18
2022-08-07T04:14:39.055Z,97.33
2022-08-07T04:15:31.483Z,96.37
2022-08-07T04:16:32.383Z,96.56
2022-08-07T04:18:19.664Z,96.75
2022-08-07T04:18:59.380Z,96.22
2022-08-07T04:19:51.109Z,96.13
2022-08-07T04:20:31.097Z,96.51
2022-08-07T04:21:31.108Z,96.51
2022-08-07T04:22:30.938Z,96.61
2022-08-07T04:23:43.984Z,95.94
2022-08-07T04:24:38.797Z,95.56
2022-08-07T04:25:30.716Z,95.27
2022-08-07T04:26:30.634Z,96.70
2022-08-07T04:27:35.406Z,95.75
2022-08-07T04:28:30.482Z,95.94
2022-08-07T04:29:58.205Z,95.56
2022-08-07T04:30:39.419Z,95.75
2022-08-07T04:31:39.071Z,95.46
2022-08-07T04:32:34.652Z,95.56
2022-08-07T04:33:30.091Z,95.65
2022-08-07T04:34:32.990Z,95.75
2022-08-07T04:35:35.303Z,95.75
2022-08-07T04:36:29.866Z,96.22
2022-08-07T04:37:29.789Z,95.75
2022-08-07T04:38:29.705Z,96.03
2022-08-07T04:39:35.477Z,96.51
2022-08-07T04:40:31.330Z,94.79
2022-08-07T04:41:29.483Z,95.56
2022-08-07T04:42:29.397Z,95.75
2022-08-07T04:44:12.271Z,96.42
2022-08-07T04:44:29.249Z,95.12
2022-08-07T04:45:57.894Z,94.69
2022-08-07T04:46:34.478Z,96.27
2022-08-07T04:47:56.960Z,95.89
2022-08-07T04:48:28.944Z,96.47
2022-08-07T04:49:28.868Z,96.66
2022-08-07T04:50:28.784Z,95.60
2022-08-07T04:51:28.707Z,95.31
2022-08-07T04:52:28.636Z,95.12
2022-08-07T04:54:01.370Z,96.75
2022-08-07T04:54:30.272Z,95.03
2022-08-07T04:58:10.972Z,96.47
2022-08-07T04:58:14.764Z,96.84
2022-08-07T04:58:16.095Z,96.94
2022-08-07T04:58:49.650Z,96.75
2022-08-07T05:00:11.989Z,97.23
2022-08-07T05:00:30.068Z,96.18
2022-08-07T05:01:29.904Z,96.27
2022-08-07T05:02:27.861Z,95.79
2022-08-07T05:04:00.935Z,97.42
2022-08-07T05:04:27.709Z,96.75
2022-08-07T05:05:53.606Z,95.60
2022-08-07T05:06:28.338Z,96.66
2022-08-07T05:07:36.586Z,96.56
2022-08-07T05:08:59.960Z,96.94
2022-08-07T05:09:28.103Z,97.38
2022-08-07T05:10:27.247Z,94.98
2022-08-07T05:11:27.167Z,96.03
2022-08-07T05:12:30.516Z,96.80
2022-08-07T05:14:55.213Z,97.66
2022-08-07T05:14:55.792Z,96.51
2022-08-07T05:15:26.890Z,97.38
2022-08-07T05:16:26.781Z,98.05
2022-08-07T05:17:52.262Z,97.38
2022-08-07T05:18:26.627Z,97.56
2022-08-07T05:19:44.202Z,97.95
2022-08-07T05:20:26.475Z,97.85
2022-08-07T05:21:59.429Z,98.14
2022-08-07T05:22:26.941Z,97.09
2022-08-07T05:23:29.997Z,97.95
2022-08-07T05:24:30.433Z,98.14
2022-08-07T05:25:36.722Z,96.03
2022-08-07T05:26:26.014Z,97.95
2022-08-07T05:28:02.514Z,97.23
2022-08-07T05:28:26.812Z,95.79
2022-08-07T05:29:25.784Z,98.38
2022-08-07T05:30:30.111Z,98.19
2022-08-07T05:31:34.952Z,97.33
2022-08-07T05:32:25.558Z,97.90
2022-08-07T05:33:25.946Z,97.42
2022-08-07T05:34:26.407Z,97.52
2022-08-07T05:35:33.874Z,95.51
2022-08-07T05:36:30.518Z,98.77
2022-08-07T05:37:25.643Z,97.81
2022-08-07T05:39:00.263Z,98.10
2022-08-07T05:40:17.925Z,97.14
2022-08-07T05:40:24.963Z,97.52
2022-08-07T05:41:24.944Z,96.75
2022-08-07T05:42:33.835Z,98.10
2022-08-07T05:43:50.049Z,97.52
2022-08-07T05:44:29.591Z,98.00
2022-08-07T05:45:46.239Z,98.24
2022-08-07T05:46:26.412Z,97.38
2022-08-07T05:47:38.492Z,97.86
2022-08-07T05:48:26.414Z,97.09
2022-08-07T05:49:24.253Z,97.38
2022-08-07T05:50:24.176Z,97.47
2022-08-07T05:51:24.099Z,97.66
2022-08-07T05:52:32.221Z,97.38
2022-08-07T05:54:12.002Z,98.14
2022-08-07T05:54:44.053Z,97.86
2022-08-07T05:55:23.798Z,98.05
2022-08-07T05:56:29.983Z,98.05
2022-08-07T05:57:23.644Z,98.05
2022-08-07T05:58:36.691Z,97.86
2022-08-07T05:59:23.488Z,97.47
2022-08-07T06:00:23.413Z,97.19
2022-08-07T06:01:23.400Z,97.28
2022-08-07T06:02:29.045Z,96.51
2022-08-07T06:03:23.185Z,96.51
2022-08-07T06:04:29.763Z,96.27
2022-08-07T06:05:26.008Z,96.42
2022-08-07T06:06:22.953Z,96.13
2022-08-07T06:08:13.789Z,96.51
2022-08-07T06:08:30.803Z,96.94
2022-08-07T06:09:22.721Z,96.18
2022-08-07T06:10:22.661Z,95.03
2022-08-07T06:11:22.568Z,95.50
2022-08-07T06:12:27.959Z,95.50
2022-08-07T06:14:10.731Z,96.37
2022-08-07T06:14:28.664Z,94.83
2022-08-07T06:15:22.269Z,95.31
2022-08-07T06:16:22.193Z,96.18
2022-08-07T06:17:22.406Z,95.31
2022-08-07T06:18:22.037Z,95.21
2022-08-07T06:19:49.980Z,95.21
2022-08-07T06:20:27.309Z,95.41
2022-08-07T06:22:15.331Z,94.54
2022-08-07T06:22:24.052Z,94.64
2022-08-07T06:23:46.373Z,95.36
2022-08-07T06:24:46.225Z,95.07
2022-08-07T06:25:21.500Z,95.26
2022-08-07T06:26:21.429Z,95.84
2022-08-07T06:27:22.912Z,95.84
2022-08-07T06:28:27.338Z,96.51
2022-08-07T06:29:21.195Z,96.32
2022-08-07T06:30:31.837Z,94.98
2022-08-07T06:31:21.047Z,94.88
2022-08-07T06:32:20.970Z,94.59
2022-08-07T06:33:22.745Z,94.88
2022-08-07T06:34:21.555Z,94.69
2022-08-07T06:35:20.745Z,93.44
2022-08-07T06:36:20.676Z,92.86
2022-08-07T06:37:20.757Z,94.83
2022-08-07T06:38:20.907Z,95.65
2022-08-07T06:40:13.317Z,93.49
2022-08-07T06:40:20.979Z,93.25
2022-08-07T06:41:29.430Z,93.87
2022-08-07T06:42:20.211Z,93.29
2022-08-07T06:43:20.928Z,93.29
2022-08-07T06:44:20.062Z,94.83
2022-08-07T06:45:20.994Z,95.89
2022-08-07T06:46:31.054Z,95.50
2022-08-07T06:47:20.924Z,94.54
2022-08-07T06:48:25.117Z,93.77
2022-08-07T06:49:19.677Z,94.83
2022-08-07T06:50:19.608Z,93.39
2022-08-07T06:51:31.091Z,93.01
2022-08-07T06:52:31.672Z,92.14
2022-08-07T06:55:27.861Z,92.72
2022-08-07T06:55:32.466Z,91.90
2022-08-07T06:55:32.990Z,90.55
2022-08-07T06:56:19.147Z,91.99
2022-08-07T06:57:19.067Z,91.80
2022-08-07T06:58:21.528Z,91.90
2022-08-07T07:00:13.501Z,90.65
2022-08-07T07:00:18.856Z,90.17
2022-08-07T07:01:18.815Z,90.65
2022-08-07T07:02:48.712Z,91.61
2022-08-07T07:03:18.667Z,92.96
2022-08-07T07:04:32.489Z,91.61
2022-08-07T07:06:03.199Z,91.71
2022-08-07T07:06:26.083Z,91.46
2022-08-07T07:07:19.188Z,90.07
2022-08-07T07:08:26.499Z,91.85
2022-08-07T07:09:18.168Z,90.12
2022-08-07T07:10:18.099Z,88.87
2022-08-07T07:12:06.856Z,88.48
2022-08-07T07:12:24.656Z,88.67
2022-08-07T07:13:56.217Z,88.10
2022-08-07T07:14:17.809Z,87.90
2022-08-07T07:15:26.233Z,89.06
2022-08-07T07:16:18.094Z,87.71
2022-08-07T07:17:17.553Z,86.36
2022-08-07T07:18:19.247Z,85.50
2022-08-07T07:19:56.340Z,85.69
2022-08-07T07:20:17.328Z,85.44
2022-08-07T07:21:19.908Z,85.25
2022-08-07T07:22:36.930Z,86.89
2022-08-07T07:24:10.430Z,85.44
2022-08-07T07:24:17.328Z,83.33
2022-08-07T07:26:32.717Z,83.62
2022-08-07T07:26:33.003Z,82.08
2022-08-07T07:27:16.808Z,83.81
2022-08-07T07:28:42.019Z,82.85
2022-08-07T07:29:38.979Z,79.48
2022-08-07T07:30:26.606Z,81.06
2022-08-07T07:31:17.363Z,79.13
2022-08-07T07:32:16.427Z,78.65
2022-08-07T07:33:16.351Z,78.46
2022-08-07T07:34:16.274Z,75.96
2022-08-07T07:35:16.202Z,75.48
2022-08-07T07:36:17.342Z,74.61
2022-08-07T07:37:45.480Z,75.48
2022-08-07T07:38:15.973Z,74.80
2022-08-07T07:39:15.953Z,75.28
2022-08-07T07:40:15.917Z,74.13
2022-08-07T07:41:15.753Z,74.99
2022-08-07T07:42:17.491Z,74.61
2022-08-07T07:43:18.804Z,74.80
2022-08-07T07:44:21.487Z,73.78
2022-08-07T07:45:15.959Z,73.20
2022-08-07T07:46:36.752Z,72.14
2022-08-07T07:47:23.103Z,71.28
2022-08-07T07:48:24.344Z,70.60
2022-08-07T07:50:34.581Z,71.47
2022-08-07T07:50:35.276Z,70.70
2022-08-07T07:51:15.553Z,70.89
2022-08-07T07:52:15.895Z,71.76
2022-08-07T07:53:23.207Z,71.76
2022-08-07T07:54:14.781Z,70.41
2022-08-07T07:55:14.700Z,69.06
2022-08-07T07:56:14.623Z,68.96
2022-08-07T07:57:14.548Z,68.58
2022-08-07T07:58:14.485Z,68.04
2022-08-07T07:59:14.404Z,67.03
2022-08-07T08:00:20.761Z,66.65
2022-08-07T08:02:02.340Z,67.65
2022-08-07T08:02:14.254Z,67.84
2022-08-07T08:03:16.892Z,67.07
2022-08-07T08:04:14.048Z,67.26
2022-08-07T08:05:15.028Z,67.36
2022-08-07T08:06:13.879Z,66.78
2022-08-07T08:07:13.797Z,66.69
2022-08-07T08:08:35.134Z,67.36
2022-08-07T08:09:13.652Z,67.26
2022-08-07T08:10:14.776Z,68.52
2022-08-07T08:11:18.245Z,66.11
2022-08-07T08:12:31.107Z,65.72
2022-08-07T08:13:15.477Z,65.43
2022-08-07T08:14:13.279Z,65.63
2022-08-07T08:15:13.202Z,64.08
2022-08-07T08:16:13.127Z,64.66
2022-08-07T08:17:56.093Z,65.33
2022-08-07T08:18:17.600Z,65.72
2022-08-07T08:20:16.125Z,65.05
2022-08-07T08:20:18.222Z,64.66
2022-08-07T08:21:12.751Z,63.50
2022-08-07T08:22:12.680Z,62.54
2022-08-07T08:23:12.612Z,62.83
2022-08-07T08:24:18.611Z,63.54
2022-08-07T08:25:24.886Z,65.05
2022-08-07T08:26:12.381Z,65.33
2022-08-07T08:27:12.308Z,64.59
2022-08-07T08:28:12.234Z,63.92
2022-08-07T08:29:12.168Z,63.34
2022-08-07T08:30:14.258Z,62.57
2022-08-07T08:31:16.298Z,62.57
2022-08-07T08:32:18.970Z,62.18
2022-08-07T08:33:16.243Z,64.11
2022-08-07T08:34:12.434Z,64.69
2022-08-07T08:35:11.716Z,63.92
2022-08-07T08:36:11.638Z,62.28
2022-08-07T08:38:01.682Z,61.41
2022-08-07T08:38:11.630Z,62.66
2022-08-07T08:39:11.458Z,62.99
2022-08-07T08:40:12.364Z,62.89
2022-08-07T08:41:11.894Z,63.37
2022-08-07T08:42:11.190Z,62.22
2022-08-07T08:43:11.125Z,61.93
2022-08-07T08:44:11.041Z,62.02
2022-08-07T08:45:13.017Z,63.09
2022-08-07T08:46:10.892Z,64.24
2022-08-07T08:47:11.396Z,63.09
2022-08-07T08:48:10.918Z,62.02
2022-08-07T08:49:10.677Z,62.15
2022-08-07T08:50:11.090Z,61.47
2022-08-07T08:51:14.642Z,61.86
2022-08-07T08:52:14.324Z,61.57
2022-08-07T08:53:10.372Z,60.71
2022-08-07T08:54:10.301Z,60.22
2022-08-07T08:55:10.225Z,59.06
2022-08-07T08:56:10.155Z,59.55
2022-08-07T08:57:10.074Z,59.93
2022-08-07T08:58:13.280Z,59.45
2022-08-07T08:59:13.502Z,60.03
2022-08-07T09:00:09.857Z,59.74
2022-08-07T09:01:15.844Z,60.80
2022-08-07T09:02:09.757Z,61.67
2022-08-07T09:03:09.629Z,61.96
2022-08-07T09:04:10.966Z,60.99
2022-08-07T09:05:09.487Z,61.28
2022-08-07T09:06:11.410Z,60.61
2022-08-07T09:07:11.116Z,60.71
2022-08-07T09:08:09.267Z,59.16
2022-08-07T09:09:09.538Z,58.68
2022-08-07T09:10:09.115Z,59.16
2022-08-07T09:11:09.050Z,59.55
2022-08-07T09:12:20.070Z,59.45
2022-08-07T09:13:08.898Z,59.83
2022-08-07T09:14:08.820Z,59.06
2022-08-07T09:16:20.706Z,58.97
2022-08-07T09:16:23.067Z,58.87
2022-08-07T09:17:08.596Z,59.06
2022-08-07T09:18:11.541Z,58.97
2022-08-07T09:19:51.000Z,58.61
2022-08-07T09:20:24.979Z,57.74
2022-08-07T09:21:13.956Z,57.64
2022-08-07T09:22:22.665Z,57.64
2022-08-07T09:24:30.451Z,58.58
2022-08-07T09:24:35.236Z,58.70
2022-08-07T09:25:14.554Z,58.77
2022-08-07T09:26:07.932Z,57.64
2022-08-07T09:27:09.091Z,56.58
2022-08-07T09:30:02.067Z,57.54
2022-08-07T09:30:05.875Z,56.58
2022-08-07T09:30:08.787Z,57.26
2022-08-07T09:31:07.565Z,58.12
2022-08-07T09:32:17.155Z,58.90
2022-08-07T09:33:16.619Z,58.22
2022-08-07T09:34:07.342Z,58.32
2022-08-07T09:36:02.710Z,57.54
2022-08-07T09:36:07.804Z,57.06
2022-08-07T09:37:07.122Z,57.54
2022-08-07T09:38:10.407Z,56.96
2022-08-07T09:39:18.058Z,55.83
2022-08-07T09:40:06.946Z,55.13
2022-08-07T09:41:06.821Z,56.10
2022-08-07T09:42:07.677Z,54.58
2022-08-07T09:43:08.352Z,56.00
2022-08-07T09:44:19.150Z,56.00
2022-08-07T09:47:49.622Z,56.00
2022-08-07T09:47:50.660Z,55.55
2022-08-07T09:47:55.665Z,55.83
2022-08-07T09:48:12.267Z,55.35
2022-08-07T09:50:02.068Z,54.19
2022-08-07T09:50:18.885Z,54.39
2022-08-07T09:51:14.825Z,52.75
2022-08-07T09:52:16.278Z,53.13
2022-08-07T09:53:05.969Z,53.13
2022-08-07T09:54:05.868Z,54.10
2022-08-07T09:55:05.797Z,53.81
2022-08-07T09:56:05.720Z,53.33
2022-08-07T09:57:05.645Z,52.94
2022-08-07T09:58:05.571Z,53.03
2022-08-07T09:59:07.835Z,54.00
2022-08-07T10:00:05.421Z,54.00
2022-08-07T10:01:08.400Z,54.19
2022-08-07T10:02:05.277Z,54.03
2022-08-07T10:03:08.266Z,54.51
2022-08-07T10:04:14.393Z,54.32
2022-08-07T10:05:12.579Z,53.93
2022-08-07T10:06:10.490Z,53.35
2022-08-07T10:07:04.911Z,53.25
2022-08-07T10:08:04.841Z,54.22
2022-08-07T10:09:04.917Z,53.74
2022-08-07T10:10:04.689Z,54.35
2022-08-07T10:12:00.031Z,53.09
2022-08-07T10:12:15.414Z,53.09
2022-08-07T10:13:04.470Z,52.41
2022-08-07T10:14:04.394Z,52.31
2022-08-07T10:15:04.323Z,52.34
2022-08-07T10:16:05.155Z,51.76
2022-08-07T10:17:04.177Z,51.37
2022-08-07T10:18:04.118Z,51.86
2022-08-07T10:19:04.029Z,51.95
2022-08-07T10:20:03.968Z,52.05
2022-08-07T10:21:03.890Z,51.66
2022-08-07T10:22:15.599Z,50.98
2022-08-07T10:23:03.739Z,50.21
2022-08-07T10:24:05.650Z,51.08
2022-08-07T10:25:03.588Z,51.18
2022-08-07T10:26:03.515Z,51.18
2022-08-07T10:27:06.759Z,51.18
2022-08-07T10:28:03.374Z,50.89
2022-08-07T10:29:03.300Z,50.89
2022-08-07T10:30:03.222Z,50.31
2022-08-07T10:31:05.884Z,49.92
2022-08-07T10:32:03.084Z,49.05
2022-08-07T10:33:03.005Z,49.05
2022-08-07T10:34:05.532Z,49.44
2022-08-07T10:35:02.911Z,48.95
2022-08-07T10:36:10.922Z,48.97
2022-08-07T10:37:03.913Z,47.21
2022-08-07T10:38:21.534Z,48.20
2022-08-07T10:39:04.361Z,48.79
2022-08-07T10:40:05.036Z,48.30
2022-08-07T10:41:02.424Z,48.39
2022-08-07T10:42:09.311Z,48.49
2022-08-07T10:43:02.281Z,49.29
2022-08-07T10:44:07.573Z,48.03
2022-08-07T10:45:02.134Z,49.10
2022-08-07T10:46:02.064Z,47.74
2022-08-07T10:47:01.990Z,47.36
2022-08-07T10:48:03.782Z,47.36
2022-08-07T10:49:01.842Z,47.06
2022-08-07T10:50:01.773Z,46.51
2022-08-07T10:51:01.697Z,47.28
2022-08-07T10:52:13.219Z,47.57
2022-08-07T10:53:07.941Z,48.44
2022-08-07T10:54:01.481Z,48.83
2022-08-07T10:55:07.883Z,47.38
2022-08-07T10:56:02.342Z,46.31
2022-08-07T10:57:01.259Z,46.12
2022-08-07T10:58:01.190Z,45.92
2022-08-07T10:59:01.120Z,46.60
2022-08-07T11:00:01.046Z,46.41
2022-08-07T11:01:00.975Z,46.43
2022-08-07T11:02:04.857Z,46.82
2022-08-07T11:03:01.006Z,47.60
2022-08-07T11:04:23.004Z,47.60
2022-08-07T11:05:04.189Z,48.66
2022-08-07T11:06:00.613Z,47.50
2022-08-07T11:07:00.541Z,48.37
2022-08-07T11:08:02.789Z,47.20
2022-08-07T11:09:00.399Z,47.30
2022-08-07T11:10:09.210Z,47.98
2022-08-07T11:11:00.326Z,47.98
2022-08-07T11:12:00.185Z,48.57
2022-08-07T11:13:02.221Z,48.18
2022-08-07T11:14:44.700Z,48.85
2022-08-07T11:15:01.053Z,47.30
2022-08-07T11:15:59.893Z,47.62
2022-08-07T11:17:01.855Z,47.13
2022-08-07T11:18:03.403Z,47.20
2022-08-07T11:18:59.675Z,48.30
2022-08-07T11:19:59.611Z,48.69
2022-08-07T11:20:59.534Z,48.00
2022-08-07T11:22:00.211Z,46.45
2022-08-07T11:22:59.388Z,47.03
2022-08-07T11:23:59.324Z,46.07
2022-08-07T11:24:59.251Z,46.36
2022-08-07T11:26:06.443Z,47.45
2022-08-07T11:27:00.375Z,47.55
2022-08-07T11:28:03.269Z,46.38
2022-08-07T11:28:58.964Z,45.61
2022-08-07T11:30:10.101Z,46.31
2022-08-07T11:30:58.816Z,46.50
2022-08-07T11:31:58.770Z,46.31
2022-08-07T11:32:58.681Z,46.60
2022-08-07T11:34:00.137Z,47.57
2022-08-07T11:34:58.536Z,46.98
2022-08-07T11:35:59.793Z,46.98
2022-08-07T11:37:00.341Z,47.38
2022-08-07T11:38:10.097Z,46.60
2022-08-07T11:38:58.307Z,46.89
2022-08-07T11:40:01.381Z,46.52
2022-08-07T11:40:58.104Z,46.42
2022-08-07T11:42:01.667Z,47.40
2022-08-07T11:42:57.962Z,47.49
2022-08-07T11:44:11.785Z,47.20
2022-08-07T11:44:58.153Z,46.64
2022-08-07T11:45:57.753Z,47.11
2022-08-07T11:46:57.677Z,46.25
2022-08-07T11:47:59.571Z,44.99
2022-08-07T11:49:50.777Z,46.33
2022-08-07T11:50:31.072Z,46.04
2022-08-07T11:50:58.342Z,46.64
2022-08-07T11:51:57.327Z,46.81
2022-08-07T11:52:57.250Z,47.52
2022-08-07T11:54:00.675Z,46.15
2022-08-07T11:54:57.112Z,46.45
2022-08-07T11:56:26.048Z,46.45
2022-08-07T11:56:56.973Z,46.06
2022-08-07T11:57:59.665Z,46.84
2022-08-07T11:58:56.828Z,45.77
2022-08-07T12:00:11.498Z,45.18
2022-08-07T12:01:02.415Z,45.89
2022-08-07T12:02:00.568Z,44.72
2022-08-07T12:02:56.596Z,44.62
2022-08-07T12:03:56.523Z,45.48
2022-08-07T12:04:56.406Z,45.48
2022-08-07T12:05:58.387Z,45.38
2022-08-07T12:07:02.431Z,45.38
2022-08-07T12:08:03.810Z,46.64
2022-08-07T12:08:56.131Z,45.48
2022-08-07T12:09:56.053Z,44.99
2022-08-07T12:11:00.883Z,44.99
2022-08-07T12:12:09.086Z,44.79
2022-08-07T12:12:55.845Z,45.67
2022-08-07T12:13:55.774Z,45.67
2022-08-07T12:15:00.123Z,44.79
2022-08-07T12:16:06.998Z,44.60
2022-08-07T12:16:55.560Z,46.08
2022-08-07T12:17:58.769Z,45.31
2022-08-07T12:18:56.297Z,46.01
2022-08-07T12:20:03.244Z,46.78
2022-08-07T12:20:55.279Z,45.52
2022-08-07T12:22:37.563Z,45.42
2022-08-07T12:22:58.704Z,44.94
2022-08-07T12:24:06.633Z,44.55
2022-08-07T12:25:02.272Z,44.35
2022-08-07T12:26:03.271Z,44.45
2022-08-07T12:26:54.868Z,45.15
2022-08-07T12:28:05.863Z,44.94
2022-08-07T12:28:54.719Z,44.86
2022-08-07T12:29:54.651Z,45.64
2022-08-07T12:30:54.589Z,43.99
2022-08-07T12:32:04.218Z,42.91
2022-08-07T12:32:54.442Z,43.04
2022-08-07T12:34:00.913Z,44.40
2022-08-07T12:34:56.344Z,42.16
2022-08-07T12:35:58.215Z,41.69
2022-08-07T12:36:54.160Z,40.91
2022-08-07T12:38:09.467Z,43.15
2022-08-07T12:38:57.407Z,43.93
2022-08-07T12:39:54.004Z,42.00
2022-08-07T12:40:53.943Z,42.00
2022-08-07T12:41:53.832Z,40.55
2022-08-07T12:42:57.132Z,40.08
2022-08-07T12:44:03.554Z,40.17
2022-08-07T12:44:53.610Z,39.61
2022-08-07T12:45:53.539Z,39.70
2022-08-07T12:46:53.467Z,40.31
2022-08-07T12:47:53.397Z,40.92
2022-08-07T12:48:55.116Z,39.94
2022-08-07T12:49:54.369Z,38.40
2022-08-07T12:50:53.194Z,37.04
2022-08-07T12:52:12.279Z,38.84